Time;durP1;ratioP1;P1;durP2;ratioP2;P2;SDS_P1;SDS_P2;PMS_P1;PMS_P2;Temp;Humidity;BMP_temperature;BMP_pressure;BME280_temperature;BME280_humidity;BME280_pressure;Samples;Min_cycle;Max_cycle;Signal;HPM_P1;HPM_P2
2022/02/15 06:34:10;;;;;;;3.30;2.53;;;;;;;6.19;90.46;99754.88;5071187;28;20220;-71
2022/02/15 06:36:35;;;;;;;5.63;5.13;;;;;;;6.18;90.68;99766.84;5066882;28;20209;-71
2022/02/15 06:39:01;;;;;;;6.23;4.97;;;;;;;6.16;91.06;99759.00;5070770;28;20569;-71
2022/02/15 06:41:26;;;;;;;5.53;5.03;;;;;;;6.16;91.16;99769.84;5070861;28;20202;-71
2022/02/15 06:43:52;;;;;;;2.33;2.13;;;;;;;6.18;91.04;99772.25;5071400;28;20182;-71
2022/02/15 06:46:18;;;;;;;6.93;4.37;;;;;;;6.18;90.77;99778.47;5070744;28;20178;-71
2022/02/15 06:48:44;;;;;;;3.17;2.93;;;;;;;6.18;90.76;99777.69;5070940;28;20262;-71
2022/02/15 06:51:09;;;;;;;3.37;3.10;;;;;;;6.19;90.84;99784.72;5070980;28;20636;-71
2022/02/15 06:53:35;;;;;;;2.70;2.50;;;;;;;6.20;90.82;99786.31;5070772;28;20185;-71
2022/02/15 06:56:00;;;;;;;3.67;3.20;;;;;;;6.19;90.99;99792.84;5070738;28;20182;-71
2022/02/15 06:58:25;;;;;;;4.27;3.87;;;;;;;6.16;91.29;99783.41;5070941;28;20179;-71
2022/02/15 07:00:51;;;;;;;4.47;4.10;;;;;;;6.18;91.13;99791.25;5070716;28;20259;-71
2022/02/15 07:03:16;;;;;;;3.67;3.00;;;;;;;6.19;90.93;99771.16;5070619;28;20231;-71
2022/02/15 07:05:42;;;;;;;6.33;4.17;;;;;;;6.19;90.79;99773.88;5070677;28;20182;-71
2022/02/15 07:08:07;;;;;;;5.83;4.67;;;;;;;6.19;91.24;99785.53;5070779;28;20175;-71
2022/02/15 07:10:33;;;;;;;9.23;7.43;;;;;;;6.19;91.30;99792.84;5070617;28;20179;-71
2022/02/15 07:12:58;;;;;;;7.43;5.37;;;;;;;6.19;91.18;99811.84;5070585;28;20174;-71
2022/02/15 07:15:24;;;;;;;10.77;8.13;;;;;;;6.16;91.15;99813.25;5070569;28;20189;-71
2022/02/15 07:17:50;;;;;;;1.77;1.67;;;;;;;6.16;91.83;99817.88;5070473;28;20175;-71
2022/02/15 07:20:15;;;;;;;3.83;3.60;;;;;;;6.13;91.59;99821.19;5070438;28;20202;-71
2022/02/15 07:22:40;;;;;;;8.47;7.63;;;;;;;6.15;91.77;99821.69;5070523;28;20175;-71
2022/02/15 07:25:07;;;;;;;9.47;7.10;;;;;;;6.14;91.49;99829.00;5070282;28;20174;-71
2022/02/15 07:27:32;;;;;;;12.23;3.53;;;;;;;6.17;91.37;99833.84;5070671;28;20170;-70
2022/02/15 07:29:58;;;;;;;4.97;4.47;;;;;;;6.19;90.98;99838.97;5070510;28;20209;-70
2022/02/15 07:32:26;;;;;;;11.10;5.23;;;;;;;6.20;90.82;99840.56;5070484;28;20184;-71
2022/02/15 07:34:52;;;;;;;9.80;6.80;;;;;;;6.22;90.61;99850.03;5070312;28;20480;-70
2022/02/15 07:37:18;;;;;;;5.40;4.43;;;;;;;6.24;90.14;99847.84;5070445;28;20202;-71
2022/02/15 07:39:44;;;;;;;6.73;6.13;;;;;;;6.24;90.12;99847.84;5070225;28;20179;-70
2022/02/15 07:42:09;;;;;;;7.57;6.50;;;;;;;6.23;90.25;99854.38;5069972;28;20663;-70
2022/02/15 07:44:35;;;;;;;6.13;2.30;;;;;;;6.23;90.38;99858.97;5070382;28;20224;-71
2022/02/15 07:47:00;;;;;;;5.43;4.93;;;;;;;6.22;90.33;99849.22;5070242;28;20575;-70
2022/02/15 07:49:26;;;;;;;4.00;3.60;;;;;;;6.22;90.13;99860.88;5072750;28;20178;-70
2022/02/15 07:51:53;;;;;;;7.67;5.57;;;;;;;6.25;90.22;99859.50;5074286;28;20182;-70
2022/02/15 07:54:19;;;;;;;6.60;6.00;;;;;;;6.25;90.38;99864.91;5074172;28;20593;-70
2022/02/15 07:56:45;;;;;;;8.23;7.53;;;;;;;6.23;90.57;99861.69;5073928;28;20258;-70
2022/02/15 07:59:10;;;;;;;7.80;7.07;;;;;;;6.22;91.05;99863.59;5073978;28;20534;-71
2022/02/15 08:01:35;;;;;;;9.07;4.37;;;;;;;6.23;91.24;99861.69;5073808;28;20208;-71
2022/02/15 08:04:01;;;;;;;6.10;3.17;;;;;;;6.24;91.06;99882.28;5073833;28;20202;-71
2022/02/15 08:06:26;;;;;;;9.20;8.20;;;;;;;6.26;91.15;99866.53;5073747;28;20654;-70
2022/02/15 08:08:53;;;;;;;4.70;4.27;;;;;;;6.25;91.15;99875.75;5073841;28;20171;-70
2022/02/15 08:11:18;;;;;;;7.80;6.47;;;;;;;6.26;91.16;99872.75;5073791;28;20642;-71
2022/02/15 08:13:44;;;;;;;4.03;2.50;;;;;;;6.31;91.28;99877.28;5073664;28;20180;-71
2022/02/15 08:16:09;;;;;;;3.87;3.57;;;;;;;6.34;91.23;99898.38;5073553;28;20224;-71
2022/02/15 08:18:40;;;;;;;7.43;6.67;;;;;;;6.32;91.02;99876.16;5073619;28;20249;-71
2022/02/15 08:21:05;;;;;;;2.00;1.87;;;;;;;6.32;91.36;99880.78;5073730;28;20263;-71
2022/02/15 08:23:31;;;;;;;4.60;4.27;;;;;;;6.31;91.06;99911.75;5073615;28;20626;-71
2022/02/15 08:25:56;;;;;;;8.73;7.83;;;;;;;6.32;91.21;99894.34;5073428;28;20190;-71
2022/02/15 08:28:21;;;;;;;2.80;2.60;;;;;;;6.33;91.76;99887.81;5073815;28;20213;-71
2022/02/15 08:30:47;;;;;;;6.10;5.47;;;;;;;6.36;91.59;99888.03;5073424;28;20216;-70
2022/02/15 08:33:12;;;;;;;6.80;6.10;;;;;;;6.39;91.39;99889.38;5073432;28;20178;-71
2022/02/15 08:35:38;;;;;;;7.90;6.13;;;;;;;6.47;91.33;99894.09;5073332;28;20220;-71
2022/02/15 08:38:03;;;;;;;4.77;4.33;;;;;;;6.56;91.13;99903.97;5072981;28;20616;-71
2022/02/15 08:40:28;;;;;;;3.80;2.60;;;;;;;6.64;90.89;99899.75;5073260;28;20198;-71
2022/02/15 08:42:54;;;;;;;5.83;5.33;;;;;;;6.67;90.20;99904.63;5073364;28;20237;-71
2022/02/15 08:45:19;;;;;;;3.73;3.43;;;;;;;6.73;90.13;99916.97;5073042;28;20166;-71
2022/02/15 08:47:45;;;;;;;4.97;4.57;;;;;;;6.76;89.64;99907.44;5073079;28;20184;-71
2022/02/15 08:50:12;;;;;;;5.07;4.60;;;;;;;6.82;88.89;99912.50;5072933;28;20181;-71
2022/02/15 08:52:37;;;;;;;2.27;2.13;;;;;;;6.96;89.09;99919.84;5072860;28;20163;-71
2022/02/15 08:55:04;;;;;;;3.57;3.20;;;;;;;7.03;88.24;99917.53;5071832;28;20236;-71
2022/02/15 08:57:29;;;;;;;3.87;2.83;;;;;;;7.09;87.61;99925.28;5072652;28;20232;-71
2022/02/15 08:59:55;;;;;;;3.63;2.50;;;;;;;7.14;87.13;99919.75;5072363;28;20689;-71
2022/02/15 09:02:21;;;;;;;4.77;4.37;;;;;;;7.22;86.60;99920.94;5072516;28;20625;-71
2022/02/15 09:04:46;;;;;;;3.77;3.47;;;;;;;7.27;86.30;99906.47;5072319;28;20183;-70
2022/02/15 09:07:12;;;;;;;3.60;3.30;;;;;;;7.35;85.86;99928.28;5072598;28;20185;-71
2022/02/15 09:09:37;;;;;;;5.23;4.83;;;;;;;7.32;85.60;99860.97;5072457;28;20182;-71
2022/02/15 09:12:03;;;;;;;2.73;2.50;;;;;;;7.28;84.85;99911.59;5072767;28;20175;-71
2022/02/15 09:14:29;;;;;;;3.13;2.93;;;;;;;7.31;84.33;99918.34;5072288;28;20178;-71
2022/02/15 09:16:56;;;;;;;6.60;5.73;;;;;;;7.34;84.35;99929.41;5072313;28;20175;-71
2022/02/15 09:19:21;;;;;;;3.07;2.83;;;;;;;7.29;84.11;99915.13;5072365;28;20257;-70
2022/02/15 09:21:49;;;;;;;1.90;1.83;;;;;;;7.26;84.49;99913.03;5072098;28;20289;-71
2022/02/15 09:24:15;;;;;;;2.30;2.20;;;;;;;7.24;85.03;99923.38;5072172;28;20171;-71
2022/02/15 09:26:40;;;;;;;2.13;2.03;;;;;;;7.15;84.96;99920.56;5071788;28;20281;-71
2022/02/15 09:29:07;;;;;;;2.17;1.97;;;;;;;7.13;85.19;99917.34;5072042;28;20220;-71
2022/02/15 09:31:33;;;;;;;3.97;3.57;;;;;;;7.14;85.32;99911.59;5072144;28;20535;-71
2022/02/15 09:33:58;;;;;;;5.07;2.53;;;;;;;7.14;84.74;99921.66;5071980;28;20171;-71
2022/02/15 09:36:26;;;;;;;4.97;4.07;;;;;;;7.14;85.24;99925.19;5072458;28;20179;-71
2022/02/15 09:38:51;;;;;;;2.27;1.87;;;;;;;7.15;85.17;99932.22;5072009;28;20170;-71
2022/02/15 09:41:17;;;;;;;2.77;2.10;;;;;;;7.18;85.67;99936.25;5072104;28;20206;-71
2022/02/15 09:43:44;;;;;;;1.77;1.67;;;;;;;7.14;84.81;99936.06;5072086;28;20185;-71
2022/02/15 09:46:13;;;;;;;3.73;3.37;;;;;;;7.22;85.08;99939.16;5071773;28;20691;-70
2022/02/15 09:48:39;;;;;;;3.47;3.17;;;;;;;7.26;85.03;99938.28;5068260;28;20715;-71
2022/02/15 09:51:06;;;;;;;1.60;1.27;;;;;;;7.20;84.84;99941.38;5071699;28;20634;-71
2022/02/15 09:53:32;;;;;;;4.20;3.43;;;;;;;7.22;85.03;99941.88;5071708;28;20228;-71
2022/02/15 09:55:58;;;;;;;1.80;1.70;;;;;;;7.27;85.33;99944.50;5071578;28;20175;-71
2022/02/15 09:58:23;;;;;;;3.93;2.83;;;;;;;7.25;84.99;99944.00;5071758;28;20174;-71
2022/02/15 10:00:49;;;;;;;3.63;1.60;;;;;;;7.26;84.45;99945.63;5071910;28;20231;-71
2022/02/15 10:03:15;;;;;;;12.57;2.20;;;;;;;7.27;84.33;99941.81;5071662;28;20167;-71
2022/02/15 10:05:46;;;;;;;1.67;1.57;;;;;;;7.29;84.29;99955.88;5071505;28;20166;-71
2022/02/15 10:08:11;;;;;;;0.60;0.60;;;;;;;7.29;83.95;99970.28;5068357;28;20205;-71
2022/02/15 10:10:38;;;;;;;3.00;2.80;;;;;;;7.32;83.61;99966.16;5067352;28;20178;-71
2022/02/15 10:13:05;;;;;;;2.70;2.50;;;;;;;7.28;83.24;99974.09;5071065;28;20175;-71
2022/02/15 10:15:35;;;;;;;2.27;1.50;;;;;;;7.29;83.97;99959.41;5071233;28;20186;-72
2022/02/15 10:18:14;;;;;;;1.67;0.97;;;;;;;7.31;83.84;99956.38;5071671;28;20177;-72
2022/02/15 10:20:44;;;;;;;1.53;1.43;;;;;;;7.37;84.25;99966.03;5071392;28;20194;-72
2022/02/15 10:23:28;;;;;;;3.13;2.87;;;;;;;7.44;84.61;99969.19;5071466;28;20170;-73
2022/02/15 10:25:53;;;;;;;1.40;1.27;;;;;;;7.40;83.49;99960.03;5070992;28;20175;-72
2022/02/15 10:28:23;;;;;;;1.67;1.57;;;;;;;7.40;83.95;99962.75;5071180;28;20174;-71
2022/02/15 10:30:52;;;;;;;0.93;0.87;;;;;;;7.42;83.57;99955.09;5071322;28;20441;-71
2022/02/15 10:33:22;;;;;;;5.97;3.93;;;;;;;7.44;83.71;99953.66;5071107;28;20182;-71
2022/02/15 10:36:08;;;;;;;3.37;2.93;;;;;;;7.49;83.04;99938.34;5071146;28;20177;-72
2022/02/15 10:38:39;;;;;;;2.13;1.97;;;;;;;7.51;83.46;99939.66;5070775;28;20198;-71
2022/02/15 10:41:13;;;;;;;4.20;2.83;;;;;;;7.46;82.08;99956.09;5071113;28;20194;-71
2022/02/15 10:43:50;;;;;;;3.70;2.17;;;;;;;7.42;82.32;99963.25;5071149;28;20173;-71
2022/02/15 10:46:24;;;;;;;2.03;1.83;;;;;;;7.41;82.46;99956.19;5070725;28;20188;-71
2022/02/15 10:48:50;;;;;;;2.63;2.43;;;;;;;7.46;82.74;99961.53;5070934;28;20244;-71
2022/02/15 10:51:17;;;;;;;3.90;2.43;;;;;;;7.42;81.81;99974.09;5070885;28;20170;-70
2022/02/15 10:53:42;;;;;;;2.17;1.97;;;;;;;7.44;82.20;99967.25;5070980;28;20244;-71
2022/02/15 10:56:08;;;;;;;2.40;1.90;;;;;;;7.48;82.52;99978.31;5070734;28;20265;-71
2022/02/15 10:58:34;;;;;;;2.53;1.97;;;;;;;7.48;81.77;99978.31;5070810;28;20630;-71
2022/02/15 11:01:02;;;;;;;3.00;2.80;;;;;;;7.56;82.23;99982.25;5070690;28;20344;-71
2022/02/15 11:03:32;;;;;;;3.07;2.87;;;;;;;7.55;81.64;99973.31;5070970;28;20264;-71
2022/02/15 11:05:57;;;;;;;35.87;4.33;;;;;;;7.59;81.47;99973.50;5070560;28;20189;-71
2022/02/15 11:08:23;;;;;;;1.77;1.43;;;;;;;7.65;82.16;99975.78;5071066;28;20511;-71
2022/02/15 11:10:59;;;;;;;4.03;2.40;;;;;;;7.55;82.08;99959.72;5070638;28;20185;-71
2022/02/15 11:13:25;;;;;;;5.43;4.43;;;;;;;7.47;82.87;99969.38;5070567;28;20166;-71
2022/02/15 11:15:52;;;;;;;4.40;3.67;;;;;;;7.38;83.90;99965.75;5069073;28;20658;-71
2022/02/15 11:18:31;;;;;;;3.20;1.57;;;;;;;7.32;84.30;99968.88;5070594;28;20174;-71
2022/02/15 11:21:00;;;;;;;1.63;1.53;;;;;;;7.26;83.26;99953.78;5070575;28;20198;-71
2022/02/15 11:23:28;;;;;;;2.13;2.03;;;;;;;7.25;82.58;99941.31;5071382;28;20650;-71
2022/02/15 11:26:11;;;;;;;3.23;2.37;;;;;;;7.40;82.63;99968.97;5074375;28;20642;-71
2022/02/15 11:28:50;;;;;;;2.83;1.87;;;;;;;7.48;82.31;99956.59;5074773;28;20202;-71
2022/02/15 11:31:31;;;;;;;3.73;3.43;;;;;;;7.62;81.78;99968.25;5074657;28;20213;-71
2022/02/15 11:34:00;;;;;;;1.13;1.03;;;;;;;7.80;82.17;99988.28;5074612;28;20181;-71
2022/02/15 11:36:25;;;;;;;3.63;3.00;;;;;;;7.85;81.46;99990.09;5074529;28;20212;-71
2022/02/15 11:38:53;;;;;;;4.17;3.40;;;;;;;7.85;81.14;99973.78;5074283;28;20197;-70
2022/02/15 11:41:19;;;;;;;5.60;4.23;;;;;;;7.78;81.32;99967.94;5074389;28;20673;-71
2022/02/15 11:44:05;;;;;;;5.47;4.77;;;;;;;7.69;81.75;99959.69;5074435;28;20175;-71
2022/02/15 11:46:37;;;;;;;1.93;1.83;;;;;;;7.79;82.50;99966.81;5074159;28;20254;-71
2022/02/15 11:49:17;;;;;;;2.17;2.07;;;;;;;7.83;80.91;99962.41;5074157;28;20181;-71
2022/02/15 11:51:46;;;;;;;3.20;3.00;;;;;;;8.11;81.42;99960.44;5074103;28;20179;-71
2022/02/15 11:54:17;;;;;;;2.77;2.47;;;;;;;8.43;80.53;99973.06;5074200;28;20541;-71
2022/02/15 11:56:49;;;;;;;5.57;5.03;;;;;;;8.48;79.46;99960.09;5073738;28;20178;-71
2022/02/15 11:59:17;;;;;;;6.10;4.83;;;;;;;8.65;78.72;99981.22;5074165;28;20181;-71
2022/02/15 12:01:54;;;;;;;2.60;2.07;;;;;;;8.59;77.70;99977.00;5073888;28;20202;-71
2022/02/15 12:04:19;;;;;;;2.00;1.90;;;;;;;8.38;77.77;99962.25;5073954;28;20182;-71
2022/02/15 12:06:47;;;;;;;3.27;3.07;;;;;;;8.42;78.16;99969.53;5073851;28;20179;-71
2022/02/15 12:09:14;;;;;;;3.17;2.97;;;;;;;8.23;77.36;99961.47;5073896;28;20595;-71
2022/02/15 12:11:41;;;;;;;7.07;3.00;;;;;;;8.17;77.93;99935.50;5072527;28;20183;-70
2022/02/15 12:14:15;;;;;;;11.60;5.03;;;;;;;8.12;78.16;99962.03;5073817;28;20172;-71
2022/02/15 12:16:47;;;;;;;2.57;2.33;;;;;;;8.01;78.89;99953.28;5073741;28;20179;-71
2022/02/15 12:19:36;;;;;;;13.97;3.73;;;;;;;7.87;79.39;99947.09;5073753;28;20179;-71
2022/02/15 12:22:10;;;;;;;4.07;3.77;;;;;;;7.81;79.78;99948.28;5073657;28;20205;-71
2022/02/15 12:24:35;;;;;;;4.27;2.70;;;;;;;7.78;80.05;99935.31;5073682;28;20248;-72
2022/02/15 12:27:08;;;;;;;3.20;2.97;;;;;;;7.73;80.17;99936.22;5073472;28;20269;-71
2022/02/15 12:29:35;;;;;;;5.37;4.87;;;;;;;7.71;79.79;99931.09;5073679;28;20163;-70
2022/02/15 12:32:03;;;;;;;5.83;5.10;;;;;;;7.79;79.89;99928.75;5073536;28;20174;-71
2022/02/15 12:34:29;;;;;;;1.70;1.60;;;;;;;7.81;79.42;99938.25;5072913;28;20182;-71
2022/02/15 12:36:55;;;;;;;3.53;3.27;;;;;;;7.87;79.61;99933.47;5073400;28;20512;-71
2022/02/15 12:39:20;;;;;;;7.37;6.70;;;;;;;7.96;79.52;99939.81;5072933;28;20178;-72
2022/02/15 12:41:47;;;;;;;4.13;3.83;;;;;;;7.91;78.62;99938.00;5073211;28;20202;-71
2022/02/15 12:44:14;;;;;;;4.80;4.37;;;;;;;7.90;78.34;99927.41;5073275;28;20588;-70
2022/02/15 12:46:39;;;;;;;4.33;3.93;;;;;;;7.86;78.70;99927.25;5073100;28;20268;-70
2022/02/15 12:49:09;;;;;;;6.27;5.67;;;;;;;7.89;78.54;99928.53;5073337;28;20312;-71
2022/02/15 12:51:38;;;;;;;3.57;3.27;;;;;;;7.86;79.09;99921.00;5073106;28;20539;-71
2022/02/15 12:54:05;;;;;;;2.80;2.43;;;;;;;7.80;77.92;99930.34;5073246;28;20200;-71
2022/02/15 12:56:33;;;;;;;3.37;3.07;;;;;;;7.72;78.02;99907.44;5072974;28;20177;-71
2022/02/15 12:59:04;;;;;;;5.43;4.93;;;;;;;7.74;78.44;99921.53;5073154;28;20178;-71
2022/02/15 13:01:30;;;;;;;6.80;6.03;;;;;;;7.70;78.67;99913.19;5073011;28;20666;-71
2022/02/15 13:03:56;;;;;;;6.63;4.83;;;;;;;7.72;79.04;99912.88;5072944;28;20220;-71
2022/02/15 13:06:23;;;;;;;6.70;5.73;;;;;;;7.67;79.46;99911.06;5072722;28;20262;-71
2022/02/15 13:08:52;;;;;;;8.73;7.57;;;;;;;7.66;79.49;99911.34;5072847;28;20210;-71
2022/02/15 13:11:23;;;;;;;7.00;5.30;;;;;;;7.61;80.09;99915.00;5072658;28;20228;-71
2022/02/15 13:13:49;;;;;;;3.73;3.40;;;;;;;7.58;80.59;99904.72;5073166;28;20249;-71
2022/02/15 13:16:14;;;;;;;7.83;4.87;;;;;;;7.58;79.97;99899.28;5072831;28;20399;-71
2022/02/15 13:18:53;;;;;;;6.83;6.10;;;;;;;7.60;79.87;99912.59;5073021;28;20663;-71
2022/02/15 13:21:23;;;;;;;3.40;3.10;;;;;;;7.58;80.16;99926.47;5072667;28;20202;-71
2022/02/15 13:24:08;;;;;;;10.63;6.10;;;;;;;7.54;79.42;99920.06;5073157;28;20213;-71
2022/02/15 13:26:40;;;;;;;4.27;3.87;;;;;;;7.55;79.59;99935.25;5079273;28;20205;-71
2022/02/15 13:29:08;;;;;;;6.40;5.80;;;;;;;7.59;79.97;99911.78;5078390;28;20269;-71
2022/02/15 13:31:44;;;;;;;12.17;7.57;;;;;;;7.64;80.44;99930.69;5073482;28;20179;-71
2022/02/15 13:34:10;;;;;;;4.20;3.90;;;;;;;7.64;79.82;99922.53;5072239;28;20243;-72
2022/02/15 13:36:37;;;;;;;3.10;2.90;;;;;;;7.67;79.84;99927.38;5072852;28;20182;-71
2022/02/15 13:39:04;;;;;;;2.47;2.33;;;;;;;7.71;79.76;99924.84;5072564;28;20266;-71
2022/02/15 13:41:29;;;;;;;6.07;5.50;;;;;;;7.72;78.79;99874.81;5072218;28;20264;-71
2022/02/15 13:44:02;;;;;;;4.80;4.30;;;;;;;7.77;78.80;99910.03;5072678;28;20179;-71
2022/02/15 13:46:33;;;;;;;4.23;3.93;;;;;;;7.74;78.67;99911.44;5071049;28;20534;-71
2022/02/15 13:48:59;;;;;;;1.40;1.33;;;;;;;7.71;78.50;99901.19;5071964;28;20197;-71
2022/02/15 13:51:27;;;;;;;3.23;2.93;;;;;;;7.70;78.48;99902.31;5071847;28;20186;-71
2022/02/15 13:53:54;;;;;;;4.00;3.60;;;;;;;7.71;78.13;99894.94;5072079;28;20171;-71
2022/02/15 13:56:20;;;;;;;4.67;4.17;;;;;;;7.72;78.70;99902.00;5072154;28;20166;-71
2022/02/15 13:58:45;;;;;;;1.87;1.77;;;;;;;7.74;78.64;99886.97;5071757;28;20232;-71
2022/02/15 14:01:10;;;;;;;5.43;4.93;;;;;;;7.76;78.85;99878.50;5071637;28;20487;-71
2022/02/15 14:03:36;;;;;;;2.67;2.47;;;;;;;7.81;78.09;99889.28;5071608;28;20536;-71
2022/02/15 14:06:01;;;;;;;4.60;4.20;;;;;;;7.83;77.11;99880.81;5071488;28;20250;-71
2022/02/15 14:08:26;;;;;;;7.03;4.80;;;;;;;7.88;77.46;99886.13;5071765;28;20192;-71
2022/02/15 14:10:52;;;;;;;2.30;2.10;;;;;;;7.88;76.15;99878.78;5071602;28;20205;-71
2022/02/15 14:13:17;;;;;;;5.03;4.60;;;;;;;7.91;76.40;99877.34;5071396;28;20178;-71
2022/02/15 14:15:42;;;;;;;3.33;2.30;;;;;;;7.88;76.25;99872.53;5069872;28;20175;-71
2022/02/15 14:18:08;;;;;;;2.53;2.33;;;;;;;7.85;76.36;99870.44;5071327;28;20178;-71
2022/02/15 14:20:33;;;;;;;0.73;0.73;;;;;;;7.86;75.89;99877.47;5071071;28;20285;-71
2022/02/15 14:23:00;;;;;;;1.27;1.13;;;;;;;7.80;75.76;99863.19;5071098;28;20171;-71
2022/02/15 14:25:25;;;;;;;1.70;1.60;;;;;;;7.79;75.16;99858.84;5067332;28;20186;-71
2022/02/15 14:27:51;;;;;;;5.03;4.53;;;;;;;7.81;75.53;99858.53;5059094;28;20240;-71
2022/02/15 14:30:18;;;;;;;3.13;2.20;;;;;;;7.80;75.56;99857.75;5071108;28;20665;-71
2022/02/15 14:32:46;;;;;;;1.53;1.43;;;;;;;7.78;75.81;99859.97;5071204;28;20243;-71
2022/02/15 14:35:13;;;;;;;2.13;1.93;;;;;;;7.78;75.76;99857.25;5071144;28;20178;-71
2022/02/15 14:37:40;;;;;;;1.50;1.40;;;;;;;7.75;76.23;99861.38;5071063;28;20182;-71
2022/02/15 14:40:06;;;;;;;2.47;2.27;;;;;;;7.89;76.23;99863.25;5070601;28;20210;-71
2022/02/15 14:42:36;;;;;;;2.53;2.07;;;;;;;8.00;75.18;99878.25;5067775;28;20272;-71
2022/02/15 14:45:05;;;;;;;2.40;2.27;;;;;;;8.12;75.43;99872.25;5070684;28;20209;-70
2022/02/15 14:47:30;;;;;;;6.50;4.57;;;;;;;8.15;75.22;99880.59;5070886;28;20183;-70
2022/02/15 14:49:56;;;;;;;4.10;3.07;;;;;;;8.10;74.30;99866.28;5070849;28;20178;-71
2022/02/15 14:52:21;;;;;;;1.37;1.20;;;;;;;7.99;73.40;99871.19;5069518;28;20176;-70
2022/02/15 14:54:46;;;;;;;1.13;1.13;;;;;;;7.97;74.64;99857.09;5070795;28;20179;-70
2022/02/15 14:57:12;;;;;;;1.37;1.27;;;;;;;7.99;74.77;99868.47;5070704;28;20175;-71
2022/02/15 14:59:39;;;;;;;3.07;2.77;;;;;;;8.04;73.78;99866.44;5070875;28;20171;-71
2022/02/15 15:02:04;;;;;;;1.00;0.90;;;;;;;8.05;73.45;99868.03;5070678;28;20205;-71
2022/02/15 15:04:30;;;;;;;4.40;3.57;;;;;;;7.91;72.37;99853.69;5069460;28;20178;-71
2022/02/15 15:06:55;;;;;;;2.37;2.17;;;;;;;7.77;72.54;99855.63;5070541;28;20652;-72
2022/02/15 15:09:23;;;;;;;2.57;2.07;;;;;;;7.61;72.96;99860.63;5070914;28;20174;-71
2022/02/15 15:11:49;;;;;;;2.53;2.33;;;;;;;7.49;73.93;99848.66;5070755;28;20178;-71
2022/02/15 15:14:14;;;;;;;3.07;2.57;;;;;;;7.46;74.27;99856.31;5070742;28;20186;-71
2022/02/15 15:16:40;;;;;;;2.30;2.10;;;;;;;7.46;74.76;99860.97;5070540;28;20171;-71
2022/02/15 15:19:05;;;;;;;2.40;1.60;;;;;;;7.40;75.60;99846.69;5070624;28;20254;-71
2022/02/15 15:21:32;;;;;;;2.67;2.47;;;;;;;7.34;76.37;99834.31;5070440;28;20213;-71
2022/02/15 15:23:57;;;;;;;2.07;1.93;;;;;;;7.29;76.71;99818.13;5070540;28;20208;-71
2022/02/15 15:26:23;;;;;;;4.17;3.87;;;;;;;7.23;76.89;99803.03;5070268;28;20183;-71
2022/02/15 15:28:48;;;;;;;2.50;1.13;;;;;;;7.21;77.26;99821.53;5070540;28;20202;-71
2022/02/15 15:31:14;;;;;;;2.03;1.93;;;;;;;7.20;77.60;99791.97;5070443;28;20303;-71
2022/02/15 15:33:40;;;;;;;8.67;5.70;;;;;;;7.20;77.83;99791.97;5070521;28;20206;-71
2022/02/15 15:36:05;;;;;;;1.77;1.67;;;;;;;7.18;78.08;99778.69;5069977;28;20179;-71
2022/02/15 15:38:30;;;;;;;6.20;5.70;;;;;;;7.19;78.23;99774.06;5069859;28;20185;-71
2022/02/15 15:40:56;;;;;;;4.73;4.30;;;;;;;7.15;77.94;99777.41;5070039;28;20206;-71
2022/02/15 15:43:21;;;;;;;4.90;3.77;;;;;;;7.13;77.61;99771.47;5070390;28;20257;-71
2022/02/15 15:45:47;;;;;;;2.83;2.63;;;;;;;7.10;77.69;99765.84;5069806;28;20174;-71
2022/02/15 15:48:13;;;;;;;5.80;5.17;;;;;;;7.07;77.81;99767.22;5070062;28;20179;-71
2022/02/15 15:50:39;;;;;;;5.57;3.43;;;;;;;7.03;78.00;99758.09;5070237;28;20171;-71
2022/02/15 15:53:05;;;;;;;4.63;3.30;;;;;;;7.06;77.70;99760.19;5069974;28;20167;-71
2022/02/15 15:55:32;;;;;;;4.20;3.80;;;;;;;7.10;77.34;99763.94;5069756;28;20183;-71
2022/02/15 15:57:58;;;;;;;2.40;2.03;;;;;;;7.08;77.03;99752.53;5069923;28;20170;-71
2022/02/15 16:00:24;;;;;;;6.23;4.53;;;;;;;7.03;77.12;99744.50;5069750;28;20658;-71
2022/02/15 16:02:50;;;;;;;7.63;2.93;;;;;;;7.03;76.84;99751.84;5069686;28;20171;-71
2022/02/15 16:05:16;;;;;;;1.53;1.43;;;;;;;7.02;76.18;99755.69;5069604;28;20177;-71
2022/02/15 16:07:42;;;;;;;1.30;1.20;;;;;;;7.03;76.14;99749.94;5069797;28;20232;-71
2022/02/15 16:10:07;;;;;;;3.70;2.40;;;;;;;7.02;76.41;99752.97;5071759;28;20186;-71
2022/02/15 16:12:33;;;;;;;2.90;2.70;;;;;;;7.00;76.68;99752.47;5073483;28;20170;-71
2022/02/15 16:14:59;;;;;;;3.80;3.17;;;;;;;7.00;76.56;99757.91;5073435;28;20206;-71
2022/02/15 16:17:25;;;;;;;1.10;1.10;;;;;;;7.01;75.66;99754.88;5072993;28;20175;-71
2022/02/15 16:19:50;;;;;;;2.90;2.70;;;;;;;7.02;75.30;99753.78;5073308;28;20626;-71
2022/02/15 16:22:15;;;;;;;3.10;2.87;;;;;;;6.95;76.01;99760.75;5073137;28;20256;-71
2022/02/15 16:24:41;;;;;;;5.20;3.97;;;;;;;6.93;75.84;99749.34;5073299;28;20595;-72
2022/02/15 16:27:07;;;;;;;2.20;1.97;;;;;;;6.87;76.00;99759.53;5073240;28;20183;-71
2022/02/15 16:29:33;;;;;;;5.17;4.50;;;;;;;6.79;76.05;99761.03;5073309;28;20489;-71
2022/02/15 16:32:00;;;;;;;4.37;3.87;;;;;;;6.72;75.91;99757.94;5072986;28;20197;-72
2022/02/15 16:34:26;;;;;;;3.30;3.10;;;;;;;6.68;76.01;99756.13;5073149;28;20171;-72
2022/02/15 16:36:52;;;;;;;1.47;0.73;;;;;;;6.62;75.79;99741.03;5072413;28;20187;-73
2022/02/15 16:39:17;;;;;;;1.23;1.13;;;;;;;6.55;76.02;99736.03;5073285;28;20223;-72
2022/02/15 16:41:44;;;;;;;6.03;5.53;;;;;;;6.45;75.72;99728.88;5072917;28;20206;-72
2022/02/15 16:44:10;;;;;;;3.20;2.90;;;;;;;6.49;75.82;99727.16;5072989;28;20178;-72
2022/02/15 16:46:36;;;;;;;3.50;3.20;;;;;;;6.43;75.27;99730.31;5071372;28;20217;-72
2022/02/15 16:49:02;;;;;;;2.83;2.63;;;;;;;6.46;74.87;99733.22;5072947;28;20174;-72
2022/02/15 16:51:28;;;;;;;2.03;1.87;;;;;;;6.42;74.43;99724.06;5072811;28;20562;-73
2022/02/15 16:53:54;;;;;;;0.87;0.87;;;;;;;6.38;73.58;99717.66;5072769;28;20175;-72
2022/02/15 16:56:20;;;;;;;2.87;2.67;;;;;;;6.41;72.28;99710.81;5072663;28;20207;-72
2022/02/15 16:58:45;;;;;;;3.97;2.90;;;;;;;6.40;71.99;99707.28;5072921;28;20219;-72
2022/02/15 17:01:10;;;;;;;3.73;2.57;;;;;;;6.42;71.38;99707.00;5072610;28;20218;-72
2022/02/15 17:03:36;;;;;;;0.87;0.87;;;;;;;6.36;71.51;99711.69;5072737;28;20167;-72
2022/02/15 17:06:02;;;;;;;2.83;2.00;;;;;;;6.32;71.41;99718.03;5072421;28;20300;-73
2022/02/15 17:08:28;;;;;;;8.13;2.77;;;;;;;6.31;71.38;99706.38;5072456;28;20206;-72
2022/02/15 17:10:53;;;;;;;4.30;2.30;;;;;;;6.32;71.40;99712.59;5072541;28;20210;-72
2022/02/15 17:13:19;;;;;;;2.80;1.70;;;;;;;6.26;72.18;99710.00;5072544;28;20182;-72
2022/02/15 17:15:45;;;;;;;3.87;2.53;;;;;;;6.26;72.65;99714.63;5072139;28;20267;-72
2022/02/15 17:18:10;;;;;;;3.33;2.63;;;;;;;6.30;72.78;99701.25;5072342;28;20308;-72
2022/02/15 17:20:36;;;;;;;3.00;2.50;;;;;;;6.29;73.16;99719.44;5072332;28;20229;-72
2022/02/15 17:23:02;;;;;;;1.93;1.83;;;;;;;6.26;73.22;99712.72;5072507;28;20174;-73
2022/02/15 17:25:27;;;;;;;0.93;0.90;;;;;;;6.23;73.26;99702.47;5071945;28;20182;-72
2022/02/15 17:27:53;;;;;;;2.83;2.47;;;;;;;6.22;73.53;99697.31;5072130;28;20232;-72
2022/02/15 17:30:20;;;;;;;3.17;2.43;;;;;;;6.23;73.64;99702.47;5072356;28;20208;-72
2022/02/15 17:32:45;;;;;;;1.20;1.10;;;;;;;6.22;73.64;99697.31;5072035;28;20171;-72
2022/02/15 17:35:11;;;;;;;2.30;2.10;;;;;;;6.15;73.73;99699.63;5071772;28;20259;-72
2022/02/15 17:37:37;;;;;;;2.27;2.07;;;;;;;6.13;73.63;99707.28;5072079;28;20526;-72
2022/02/15 17:40:03;;;;;;;1.47;1.07;;;;;;;6.16;73.36;99704.75;5070787;28;20179;-72
2022/02/15 17:42:29;;;;;;;0.87;0.87;;;;;;;6.14;73.08;99684.47;5071706;28;20212;-72
2022/02/15 17:44:54;;;;;;;2.00;1.80;;;;;;;6.05;73.13;99681.66;5071707;28;20175;-72
2022/02/15 17:47:22;;;;;;;0.60;0.53;;;;;;;6.16;72.37;99687.69;5071814;28;20210;-72
2022/02/15 17:49:48;;;;;;;2.43;1.80;;;;;;;6.15;72.34;99678.75;5071737;28;20633;-72
2022/02/15 17:52:13;;;;;;;1.53;1.43;;;;;;;6.18;71.77;99680.84;5071730;28;20178;-72
2022/02/15 17:54:39;;;;;;;0.70;0.70;;;;;;;6.20;71.59;99694.91;5071587;28;20189;-72
2022/02/15 17:57:07;;;;;;;1.60;1.50;;;;;;;6.16;71.64;99687.69;5071499;28;20179;-74
2022/02/15 17:59:32;;;;;;;2.33;2.10;;;;;;;6.06;71.72;99698.72;5071784;28;20174;-73
2022/02/15 18:02:00;;;;;;;1.07;0.73;;;;;;;6.14;71.17;99684.47;5071479;28;20210;-72
2022/02/15 18:04:27;;;;;;;2.40;1.70;;;;;;;6.05;71.36;99676.22;5071504;28;20175;-73
2022/02/15 18:06:53;;;;;;;3.27;2.00;;;;;;;6.11;71.15;99672.31;5071218;28;20182;-73
2022/02/15 18:09:18;;;;;;;1.63;1.23;;;;;;;6.09;71.05;99654.75;5071313;28;20529;-73
2022/02/15 18:11:45;;;;;;;2.50;1.60;;;;;;;6.11;70.49;99657.97;5071062;28;20181;-73
2022/02/15 18:14:11;;;;;;;2.70;1.70;;;;;;;6.17;70.23;99673.03;5071211;28;20175;-73